Meadville, Pennsylvania
Current Conditions -  °F | °C
As of 6:53 AM on Tuesday 21 Oct 2014 (Local Time) from KGKJ Reporting Station
Overcast Overcast  
Wind Chill: 50°   Ceiling: 1600
Heat Index: 50°   Visibility: 7mi
Dew Point: 47°   Wind: 5mph
Humidity: 89%   Direction: 350°N
Pressure: 29.83"   Gusts: NA
Location:  41.64°N, 80.15°W
Report Text: KGKJ 211053Z AUTO 35004KT 7SM FEW011 BKN016 OVC038 10/08 A2983 RMK AO2 RAB11E29 SLP102 P0001 T01000083 TSNO
Loading
Personal Weather Stations






























Interactive Weather Map
Tropical Storm Tracking
New forecast layout! Learn more

10-Day Weather Forecast

Advertisements
Track Severe Weather on mobile